Time;durP1;ratioP1;P1;durP2;ratioP2;P2;SDS_P1;SDS_P2;PMS_P1;PMS_P2;Temp;Humidity;BMP_temperature;BMP_pressure;BME280_temperature;BME280_humidity;BME280_pressure;Samples;Min_cycle;Max_cycle;Signal;HPM_P1;HPM_P2
2022/11/23 00:00:24;;;;;;;7.20;1.60;;;9.10;99.90;;;;;;4991074;28;20034;-57
2022/11/23 00:02:53;;;;;;;11.02;1.15;;;9.10;99.90;;;;;;4995106;28;20037;-55
2022/11/23 00:05:19;;;;;;;7.93;1.30;;;9.10;99.90;;;;;;4986366;28;20030;-55
2022/11/23 00:07:44;;;;;;;4.43;0.80;;;9.10;99.90;;;;;;4990013;28;20446;-54
2022/11/23 00:10:10;;;;;;;5.85;1.05;;;9.10;99.90;;;;;;4993052;28;20034;-55
2022/11/23 00:12:35;;;;;;;5.60;0.90;;;9.10;99.90;;;;;;4994458;28;20022;-55
2022/11/23 00:15:01;;;;;;;8.57;1.20;;;9.10;99.90;;;;;;4995694;28;20022;-57
2022/11/23 00:17:27;;;;;;;7.25;1.05;;;9.20;99.90;;;;;;4991531;28;20034;-56
2022/11/23 00:19:52;;;;;;;7.00;1.48;;;9.10;99.90;;;;;;4993647;28;20026;-56
2022/11/23 00:22:18;;;;;;;5.20;1.08;;;9.10;99.90;;;;;;4990211;28;20038;-57
2022/11/23 00:24:43;;;;;;;3.83;0.85;;;9.10;99.90;;;;;;4996525;28;20018;-57
2022/11/23 00:27:08;;;;;;;6.65;1.17;;;9.10;99.90;;;;;;4991182;28;20068;-56
2022/11/23 00:29:34;;;;;;;2.50;0.90;;;9.10;99.90;;;;;;4995147;28;20506;-57
2022/11/23 00:31:59;;;;;;;4.38;0.90;;;9.10;99.90;;;;;;4988199;28;20030;-57
2022/11/23 00:34:25;;;;;;;2.65;0.88;;;9.10;99.90;;;;;;4998199;28;20038;-56
2022/11/23 00:36:50;;;;;;;5.65;1.90;;;9.10;99.90;;;;;;4989771;28;20041;-56
2022/11/23 00:39:16;;;;;;;7.22;1.70;;;9.10;99.90;;;;;;4995162;28;20497;-56
2022/11/23 00:41:42;;;;;;;6.82;1.23;;;9.20;99.90;;;;;;4988899;28;20077;-56
2022/11/23 00:44:07;;;;;;;6.03;1.00;;;9.20;99.90;;;;;;4995472;28;20030;-52
2022/11/23 00:46:33;;;;;;;2.85;0.88;;;9.30;99.90;;;;;;4992869;28;20025;-53
2022/11/23 00:48:59;;;;;;;3.03;0.50;;;9.30;99.90;;;;;;4990893;28;20424;-54
2022/11/23 00:51:30;;;;;;;6.22;1.00;;;9.40;99.90;;;;;;4989286;28;20029;-56
2022/11/23 00:53:57;;;;;;;7.03;0.80;;;9.40;99.90;;;;;;4994606;28;20033;-56
2022/11/23 00:56:22;;;;;;;2.25;0.65;;;9.40;99.90;;;;;;4989728;28;20022;-58
2022/11/23 00:58:52;;;;;;;3.25;0.88;;;9.40;99.90;;;;;;4994200;28;20106;-57
2022/11/23 01:01:20;;;;;;;4.88;0.80;;;9.40;99.90;;;;;;4984911;28;20026;-57
2022/11/23 01:03:49;;;;;;;6.88;1.10;;;9.30;99.90;;;;;;4989173;28;20385;-56
2022/11/23 01:06:24;;;;;;;6.90;1.17;;;9.30;99.90;;;;;;4995588;28;20637;-56
2022/11/23 01:08:51;;;;;;;5.22;1.00;;;9.30;99.90;;;;;;4991558;28;20038;-56
2022/11/23 01:11:17;;;;;;;2.25;1.10;;;9.30;99.90;;;;;;4993847;28;20054;-56
2022/11/23 01:13:42;;;;;;;3.42;0.70;;;9.20;99.90;;;;;;4994229;28;20056;-55
2022/11/23 01:16:23;;;;;;;3.63;0.95;;;9.20;99.90;;;;;;4994711;28;20405;-56
2022/11/23 01:19:01;;;;;;;4.45;1.00;;;9.20;99.90;;;;;;4990810;28;20053;-57
2022/11/23 01:21:28;;;;;;;9.38;1.15;;;9.20;99.90;;;;;;4991651;28;20519;-58
2022/11/23 01:23:54;;;;;;;3.97;0.80;;;9.20;99.90;;;;;;4998021;28;20081;-57
2022/11/23 01:26:20;;;;;;;6.18;0.93;;;9.20;99.90;;;;;;4993420;28;20038;-58
2022/11/23 01:28:46;;;;;;;6.25;1.40;;;9.20;99.90;;;;;;4988447;28;20097;-57
2022/11/23 01:31:21;;;;;;;9.55;1.10;;;9.20;99.90;;;;;;4992964;28;20066;-57
2022/11/23 01:33:51;;;;;;;2.63;1.02;;;9.30;99.90;;;;;;4994957;28;20026;-57
2022/11/23 01:36:21;;;;;;;9.60;1.63;;;9.30;99.90;;;;;;4989534;28;20480;-56
2022/11/23 01:38:47;;;;;;;2.75;0.80;;;9.30;99.90;;;;;;4998877;28;20034;-56
2022/11/23 01:41:22;;;;;;;4.80;1.45;;;9.30;99.90;;;;;;4998464;28;20045;-57
2022/11/23 01:43:48;;;;;;;6.70;1.00;;;9.30;99.90;;;;;;4995810;28;20388;-56
2022/11/23 01:46:13;;;;;;;14.02;0.90;;;9.30;99.90;;;;;;4991382;28;20037;-58
2022/11/23 01:48:47;;;;;;;3.95;0.80;;;9.20;99.90;;;;;;4994666;28;20034;-57
2022/11/23 01:51:16;;;;;;;5.05;0.70;;;9.20;99.90;;;;;;4991958;28;20034;-57
2022/11/23 01:53:43;;;;;;;4.15;0.80;;;9.20;99.90;;;;;;4995282;28;20659;-57
2022/11/23 01:56:15;;;;;;;4.82;0.80;;;9.20;99.90;;;;;;4994878;28;20030;-54
2022/11/23 01:58:46;;;;;;;5.72;1.20;;;9.20;99.90;;;;;;4992100;28;20515;-56
2022/11/23 02:01:12;;;;;;;3.15;0.70;;;9.10;99.90;;;;;;4992422;28;20065;-57
2022/11/23 02:03:39;;;;;;;3.90;0.90;;;9.20;99.90;;;;;;4997538;28;20030;-56
2022/11/23 02:06:10;;;;;;;3.67;0.80;;;9.20;99.90;;;;;;4994711;28;20425;-56
2022/11/23 02:08:36;;;;;;;4.28;0.88;;;9.30;99.90;;;;;;5008471;23;20007;-68
2022/11/23 02:11:02;;;;;;;2.80;0.68;;;9.30;99.90;;;;;;4991162;28;20509;-63
2022/11/23 02:13:28;;;;;;;6.95;1.08;;;9.30;99.90;;;;;;4989931;28;20033;-63
2022/11/23 02:15:56;;;;;;;5.97;0.90;;;9.30;99.90;;;;;;4989604;28;20404;-64
2022/11/23 02:18:25;;;;;;;5.50;0.95;;;9.30;99.90;;;;;;4988811;28;20554;-63
2022/11/23 02:20:51;;;;;;;11.45;1.33;;;9.30;99.90;;;;;;4989592;28;20034;-63
2022/11/23 02:23:23;;;;;;;7.25;0.77;;;9.30;99.90;;;;;;4991336;28;20026;-61
2022/11/23 02:26:09;;;;;;;10.68;1.17;;;9.30;99.90;;;;;;4988925;28;20030;-61
2022/11/23 02:28:40;;;;;;;5.85;1.00;;;9.30;99.90;;;;;;4990343;28;20026;-64
2022/11/23 02:31:06;;;;;;;7.53;0.88;;;9.30;99.90;;;;;;4993956;28;20113;-63
2022/11/23 02:33:31;;;;;;;8.52;1.42;;;9.30;99.90;;;;;;4988801;28;20156;-66
2022/11/23 02:35:59;;;;;;;9.60;1.50;;;9.40;99.90;;;;;;4990375;28;20062;-64
2022/11/23 02:38:32;;;;;;;7.22;1.38;;;9.40;99.90;;;;;;4991742;28;20031;-63
2022/11/23 02:40:58;;;;;;;9.48;1.10;;;9.30;99.90;;;;;;4990464;28;20025;-64
2022/11/23 02:43:24;;;;;;;6.75;1.45;;;9.30;99.90;;;;;;4989165;28;20031;-63
2022/11/23 02:45:54;;;;;;;10.77;1.00;;;9.40;99.90;;;;;;4991652;28;20080;-63
2022/11/23 02:48:19;;;;;;;4.18;1.02;;;9.30;99.90;;;;;;4987399;28;20041;-65
2022/11/23 02:50:45;;;;;;;5.55;0.68;;;9.30;99.90;;;;;;4988964;28;20172;-62
2022/11/23 02:53:12;;;;;;;7.30;1.00;;;9.30;99.90;;;;;;4989658;28;20034;-61
2022/11/23 02:55:37;;;;;;;4.60;1.00;;;9.30;99.90;;;;;;4992344;28;20030;-63
2022/11/23 02:58:04;;;;;;;6.70;1.10;;;9.30;99.90;;;;;;4972872;28;20038;-65
2022/11/23 03:00:30;;;;;;;4.38;0.93;;;9.30;99.90;;;;;;4987510;28;20038;-61
2022/11/23 03:02:57;;;;;;;11.77;1.27;;;9.30;99.90;;;;;;4985844;28;20041;-64
2022/11/23 03:05:23;;;;;;;8.90;1.08;;;9.20;99.90;;;;;;4989437;28;20050;-63
2022/11/23 03:07:48;;;;;;;8.07;0.90;;;9.20;99.90;;;;;;4988369;28;20050;-59
2022/11/23 03:10:14;;;;;;;9.68;1.13;;;9.20;99.90;;;;;;4985939;28;20444;-62
2022/11/23 03:12:40;;;;;;;7.93;0.90;;;9.20;99.90;;;;;;4988458;28;20100;-63
2022/11/23 03:15:06;;;;;;;11.73;1.27;;;9.20;99.90;;;;;;4973753;28;20153;-63
2022/11/23 03:17:31;;;;;;;7.20;0.85;;;9.10;99.90;;;;;;4995069;28;20498;-63
2022/11/23 03:19:57;;;;;;;3.20;0.93;;;9.20;99.90;;;;;;4993708;28;20477;-57
2022/11/23 03:22:23;;;;;;;5.43;1.00;;;9.20;99.90;;;;;;4990319;28;20065;-59
2022/11/23 03:24:49;;;;;;;7.35;0.80;;;9.20;99.90;;;;;;4991104;28;20041;-61
2022/11/23 03:27:14;;;;;;;5.53;0.85;;;9.20;99.90;;;;;;4987366;28;20022;-61
2022/11/23 03:29:40;;;;;;;5.10;0.77;;;9.30;99.90;;;;;;4988631;28;20112;-65
2022/11/23 03:32:05;;;;;;;2.83;0.55;;;9.20;99.90;;;;;;4990265;28;20489;-63
2022/11/23 03:34:31;;;;;;;6.57;0.98;;;9.20;99.90;;;;;;4994808;28;20030;-63
2022/11/23 03:36:56;;;;;;;3.28;0.85;;;9.20;99.90;;;;;;4985424;28;20154;-62
2022/11/23 03:39:22;;;;;;;10.27;1.08;;;9.20;99.90;;;;;;4990769;28;20534;-62
2022/11/23 03:41:47;;;;;;;3.78;1.08;;;9.30;99.90;;;;;;4989175;28;20030;-63
2022/11/23 03:44:14;;;;;;;9.65;1.10;;;9.30;99.90;;;;;;4989470;28;20026;-64
2022/11/23 03:46:39;;;;;;;9.75;1.95;;;9.30;99.90;;;;;;4988250;28;20030;-62
2022/11/23 03:49:05;;;;;;;5.30;0.80;;;9.20;99.90;;;;;;4985014;28;20026;-64
2022/11/23 03:51:30;;;;;;;9.30;1.08;;;9.20;99.90;;;;;;4980862;28;20081;-63
2022/11/23 03:53:56;;;;;;;10.82;1.00;;;9.30;99.90;;;;;;4988612;28;20030;-65
2022/11/23 03:56:21;;;;;;;3.03;1.00;;;9.20;99.90;;;;;;4985846;28;20592;-61
2022/11/23 03:58:47;;;;;;;7.03;0.80;;;9.20;99.90;;;;;;4988044;28;20044;-61
2022/11/23 04:01:12;;;;;;;8.52;1.60;;;9.20;99.90;;;;;;4990935;28;20444;-64
2022/11/23 04:03:38;;;;;;;7.63;1.00;;;9.20;99.90;;;;;;4986332;28;20050;-62
2022/11/23 04:06:04;;;;;;;6.53;1.33;;;9.20;99.90;;;;;;4995920;28;20110;-64
2022/11/23 04:08:29;;;;;;;3.20;0.80;;;9.20;99.90;;;;;;4987932;28;20160;-63
2022/11/23 04:10:58;;;;;;;7.90;0.80;;;9.20;99.90;;;;;;4994023;28;20045;-59
2022/11/23 04:13:24;;;;;;;8.02;1.00;;;9.20;99.90;;;;;;4991084;28;20026;-62
2022/11/23 04:15:49;;;;;;;5.28;0.70;;;9.10;99.90;;;;;;4994450;28;20034;-63
2022/11/23 04:18:15;;;;;;;4.50;0.93;;;9.20;99.90;;;;;;4982468;28;20023;-59
2022/11/23 04:20:41;;;;;;;6.32;1.00;;;9.10;99.90;;;;;;4986751;28;20400;-61
2022/11/23 04:23:07;;;;;;;7.28;1.10;;;9.10;99.90;;;;;;4990322;28;20034;-63
2022/11/23 04:25:32;;;;;;;11.48;2.20;;;9.10;99.90;;;;;;4991159;28;20054;-63
2022/11/23 04:27:58;;;;;;;5.90;1.00;;;9.10;99.90;;;;;;4987451;28;20388;-61
2022/11/23 04:30:23;;;;;;;4.80;0.80;;;9.10;99.90;;;;;;4993971;28;20037;-61
2022/11/23 04:32:49;;;;;;;12.77;1.25;;;9.10;99.90;;;;;;4985403;28;20109;-61
2022/11/23 04:35:14;;;;;;;7.95;1.23;;;9.20;99.90;;;;;;4987158;28;20030;-58
2022/11/23 04:37:40;;;;;;;12.35;1.70;;;9.20;99.90;;;;;;4987346;28;20161;-60
2022/11/23 04:40:06;;;;;;;6.57;1.08;;;9.20;99.90;;;;;;4996913;28;20507;-58
2022/11/23 04:42:32;;;;;;;7.57;1.17;;;9.20;99.90;;;;;;4988529;28;20511;-63
2022/11/23 04:44:57;;;;;;;7.80;1.52;;;9.20;99.90;;;;;;4989889;28;20030;-62
2022/11/23 04:47:23;;;;;;;8.18;1.10;;;9.20;99.90;;;;;;4983287;28;20073;-61
2022/11/23 04:49:49;;;;;;;9.80;1.45;;;9.20;99.90;;;;;;4984618;28;20113;-61
2022/11/23 04:52:15;;;;;;;8.02;0.93;;;9.10;99.90;;;;;;4989921;28;20140;-61
2022/11/23 04:54:40;;;;;;;14.75;1.25;;;9.10;99.90;;;;;;4991930;28;20030;-62
2022/11/23 04:57:06;;;;;;;7.57;0.93;;;9.20;99.90;;;;;;4987692;28;20030;-61
2022/11/23 04:59:31;;;;;;;8.48;1.80;;;9.10;99.90;;;;;;4987468;28;20742;-61
2022/11/23 05:01:57;;;;;;;8.10;2.03;;;9.20;99.90;;;;;;4988568;28;20049;-62
2022/11/23 05:04:22;;;;;;;4.07;1.25;;;9.20;99.90;;;;;;4984536;28;20508;-63
2022/11/23 05:06:48;;;;;;;12.25;0.90;;;9.20;99.90;;;;;;4988222;28;20896;-65
2022/11/23 05:09:14;;;;;;;4.70;0.95;;;9.20;99.90;;;;;;4982119;28;20038;-61
2022/11/23 05:11:40;;;;;;;7.68;1.00;;;9.20;99.90;;;;;;4990451;28;20109;-64
2022/11/23 05:14:05;;;;;;;2.67;0.60;;;9.20;99.90;;;;;;4995319;28;20034;-65
2022/11/23 05:16:31;;;;;;;7.32;1.00;;;9.10;99.90;;;;;;4991837;28;20033;-58
2022/11/23 05:18:56;;;;;;;9.35;0.98;;;9.10;99.90;;;;;;4990352;28;20117;-62
2022/11/23 05:21:22;;;;;;;7.15;0.82;;;9.10;99.90;;;;;;4987752;28;20115;-64
2022/11/23 05:23:47;;;;;;;5.47;1.15;;;9.10;99.90;;;;;;4990309;28;20057;-62
2022/11/23 05:26:13;;;;;;;4.75;0.57;;;9.10;99.90;;;;;;4994740;28;20053;-60
2022/11/23 05:28:38;;;;;;;12.30;1.25;;;9.10;99.90;;;;;;4990870;28;20391;-60
2022/11/23 05:31:04;;;;;;;2.33;0.90;;;9.10;99.90;;;;;;4992706;28;20038;-63
2022/11/23 05:33:30;;;;;;;7.35;0.95;;;9.10;99.90;;;;;;4990915;28;20036;-62
2022/11/23 05:35:55;;;;;;;11.88;1.23;;;9.10;99.90;;;;;;4987374;28;20022;-63
2022/11/23 05:38:21;;;;;;;7.13;0.88;;;9.00;99.90;;;;;;4988894;28;20073;-65
2022/11/23 05:40:46;;;;;;;3.33;0.80;;;9.00;99.90;;;;;;4994011;28;20154;-61
2022/11/23 05:43:12;;;;;;;10.65;1.08;;;9.00;99.90;;;;;;4990883;28;20030;-61
2022/11/23 05:45:38;;;;;;;6.50;1.30;;;9.00;99.90;;;;;;4987756;28;20114;-62
2022/11/23 05:48:04;;;;;;;8.23;1.00;;;9.00;99.90;;;;;;4984910;28;20570;-64
2022/11/23 05:50:30;;;;;;;8.95;1.13;;;9.00;99.90;;;;;;4987371;28;20519;-62
2022/11/23 05:52:57;;;;;;;5.10;0.70;;;9.00;99.90;;;;;;4989976;28;20489;-64
2022/11/23 05:55:22;;;;;;;5.05;1.02;;;9.00;99.90;;;;;;4980762;28;20031;-59
2022/11/23 05:57:48;;;;;;;5.43;0.82;;;9.00;99.90;;;;;;4984925;28;20081;-64
2022/11/23 06:00:14;;;;;;;4.82;0.80;;;9.00;99.90;;;;;;4984712;28;20080;-62
2022/11/23 06:02:40;;;;;;;7.03;0.80;;;9.00;99.90;;;;;;4988946;28;20034;-63
2022/11/23 06:05:06;;;;;;;4.75;0.70;;;9.00;99.90;;;;;;4988798;28;20053;-63
2022/11/23 06:07:32;;;;;;;13.18;1.30;;;9.00;99.90;;;;;;4989828;28;20038;-64
2022/11/23 06:09:58;;;;;;;9.43;0.98;;;9.00;99.90;;;;;;4992362;28;20117;-64
2022/11/23 06:12:23;;;;;;;3.75;1.00;;;9.00;99.90;;;;;;4992765;28;20129;-63
2022/11/23 06:14:49;;;;;;;7.32;0.82;;;9.00;99.90;;;;;;4993966;28;20048;-65
2022/11/23 06:17:15;;;;;;;3.08;0.93;;;9.00;99.90;;;;;;4988275;28;20050;-62
2022/11/23 06:19:40;;;;;;;8.52;0.90;;;9.00;99.90;;;;;;4983014;28;20034;-63
2022/11/23 06:22:06;;;;;;;6.28;0.90;;;9.00;99.90;;;;;;4989272;28;20034;-63
2022/11/23 06:24:32;;;;;;;9.05;1.08;;;9.00;99.90;;;;;;4986549;28;20393;-66
2022/11/23 06:26:57;;;;;;;3.45;0.63;;;9.00;99.90;;;;;;4986075;28;20059;-62
2022/11/23 06:29:23;;;;;;;5.38;1.10;;;9.00;99.90;;;;;;4984262;28;20483;-63
2022/11/23 06:31:48;;;;;;;3.28;0.82;;;9.00;99.90;;;;;;4993663;28;20026;-62
2022/11/23 06:34:14;;;;;;;5.20;1.10;;;9.00;99.90;;;;;;4995600;28;20022;-64
2022/11/23 06:36:40;;;;;;;6.25;1.08;;;9.00;99.90;;;;;;4977308;28;20057;-64
2022/11/23 06:39:05;;;;;;;7.38;1.00;;;9.00;99.90;;;;;;4984831;28;20058;-64
2022/11/23 06:41:31;;;;;;;7.07;1.33;;;9.10;99.90;;;;;;4992091;28;20057;-64
2022/11/23 06:43:56;;;;;;;6.25;1.40;;;9.10;99.90;;;;;;4999371;28;20030;-61
2022/11/23 06:46:22;;;;;;;7.13;1.42;;;9.20;99.90;;;;;;4984048;28;20071;-64
2022/11/23 06:48:47;;;;;;;5.97;1.30;;;9.20;99.90;;;;;;4986419;28;20443;-62
2022/11/23 06:51:14;;;;;;;6.47;1.20;;;9.30;99.90;;;;;;4986847;28;20030;-63
2022/11/23 06:53:39;;;;;;;7.43;1.42;;;9.20;99.90;;;;;;4998984;28;20084;-63
2022/11/23 06:56:06;;;;;;;11.77;0.95;;;9.20;99.90;;;;;;4994052;28;20034;-61
2022/11/23 06:58:31;;;;;;;11.85;1.38;;;9.20;99.90;;;;;;4991386;28;20070;-63
2022/11/23 07:01:06;;;;;;;9.90;1.35;;;9.20;99.90;;;;;;4987886;28;20425;-60
2022/11/23 07:03:32;;;;;;;12.18;1.30;;;9.20;99.90;;;;;;4994867;28;20030;-65
2022/11/23 07:05:57;;;;;;;13.18;1.10;;;9.20;99.90;;;;;;4988962;28;20142;-62
2022/11/23 07:08:24;;;;;;;18.88;1.42;;;9.20;99.90;;;;;;4994075;28;20401;-60
2022/11/23 07:10:49;;;;;;;6.38;1.30;;;9.20;99.90;;;;;;4993762;28;20037;-63
2022/11/23 07:13:15;;;;;;;14.45;2.47;;;9.10;99.90;;;;;;4992622;28;20018;-63
2022/11/23 07:15:41;;;;;;;6.40;1.40;;;9.00;99.90;;;;;;4990903;28;20030;-65
2022/11/23 07:18:09;;;;;;;9.48;1.02;;;8.90;99.90;;;;;;5000025;28;20549;-59
2022/11/23 07:20:34;;;;;;;12.30;1.30;;;8.90;99.90;;;;;;4987581;28;20150;-60
2022/11/23 07:23:09;;;;;;;13.57;1.42;;;8.60;99.90;;;;;;4987983;28;20105;-60
2022/11/23 07:25:36;;;;;;;19.25;4.50;;;8.60;99.90;;;;;;4992082;28;20077;-64
2022/11/23 07:28:03;;;;;;;11.50;1.42;;;8.50;99.90;;;;;;4995596;28;20105;-59
2022/11/23 07:30:30;;;;;;;10.02;1.80;;;8.40;99.90;;;;;;4983884;28;20154;-64
2022/11/23 07:33:04;;;;;;;6.60;1.13;;;8.50;99.90;;;;;;4982852;28;20035;-63
2022/11/23 07:35:31;;;;;;;14.68;1.52;;;8.50;99.90;;;;;;4982587;28;20030;-61
2022/11/23 07:37:57;;;;;;;16.70;1.60;;;8.60;99.90;;;;;;4989399;28;20396;-64
2022/11/23 07:40:22;;;;;;;7.97;1.48;;;8.70;99.90;;;;;;4996257;28;20026;-64
2022/11/23 07:42:48;;;;;;;9.45;1.58;;;8.70;99.90;;;;;;4988139;28;20076;-61
2022/11/23 07:45:14;;;;;;;10.25;1.40;;;8.60;99.90;;;;;;4986079;28;20044;-62
2022/11/23 07:47:39;;;;;;;15.50;1.85;;;8.70;99.90;;;;;;4986164;28;20030;-64
2022/11/23 07:50:08;;;;;;;14.48;1.38;;;8.70;99.90;;;;;;4985736;28;20030;-62
2022/11/23 07:52:35;;;;;;;14.00;1.50;;;8.60;99.90;;;;;;4990613;28;20065;-65
2022/11/23 07:55:01;;;;;;;12.70;1.00;;;8.50;99.90;;;;;;4988447;28;20481;-62
2022/11/23 07:57:27;;;;;;;11.20;1.88;;;8.50;99.90;;;;;;4986236;28;20064;-63
2022/11/23 07:59:52;;;;;;;12.23;1.42;;;8.50;99.90;;;;;;4986373;28;20080;-64
2022/11/23 08:02:18;;;;;;;16.27;2.60;;;8.40;99.90;;;;;;4993433;28;20427;-64
2022/11/23 08:04:44;;;;;;;18.00;1.80;;;8.40;99.90;;;;;;4989920;28;20457;-62
2022/11/23 08:07:09;;;;;;;9.23;1.35;;;8.40;99.90;;;;;;4973001;28;20018;-62
2022/11/23 08:09:35;;;;;;;11.82;1.95;;;8.40;99.90;;;;;;4988661;28;20120;-62
2022/11/23 08:12:01;;;;;;;12.57;1.95;;;8.40;99.90;;;;;;4988361;28;20026;-63
2022/11/23 08:14:27;;;;;;;15.07;1.00;;;8.40;99.90;;;;;;4987204;28;20114;-59
2022/11/23 08:16:52;;;;;;;9.05;1.35;;;8.40;99.90;;;;;;4993484;28;20063;-54
2022/11/23 08:19:18;;;;;;;7.95;1.67;;;8.40;99.90;;;;;;4997131;28;20033;-58
2022/11/23 08:21:44;;;;;;;15.43;1.40;;;8.50;99.90;;;;;;4985827;28;20496;-54
2022/11/23 08:24:12;;;;;;;15.55;1.52;;;8.50;99.90;;;;;;4988763;28;20057;-56
2022/11/23 08:26:37;;;;;;;10.88;2.33;;;8.50;99.90;;;;;;4970750;28;20113;-55
2022/11/23 08:29:04;;;;;;;6.35;1.10;;;8.60;99.90;;;;;;4986294;28;20176;-52
2022/11/23 08:31:31;;;;;;;6.70;1.40;;;8.70;99.90;;;;;;4967658;28;20092;-56
2022/11/23 08:33:57;;;;;;;5.18;1.25;;;8.70;99.90;;;;;;4987634;28;20023;-56
2022/11/23 08:36:23;;;;;;;8.35;1.55;;;8.80;99.90;;;;;;4978844;28;20110;-55
2022/11/23 08:38:50;;;;;;;20.25;2.28;;;8.90;99.90;;;;;;5015805;23;20069;-56
2022/11/23 08:41:19;;;;;;;5.63;1.20;;;8.90;99.90;;;;;;5015882;28;20022;-57
2022/11/23 08:43:46;;;;;;;13.25;2.28;;;9.00;99.90;;;;;;5002452;28;20067;-55
2022/11/23 08:46:13;;;;;;;23.75;1.90;;;9.00;99.90;;;;;;5001905;28;20061;-55
2022/11/23 08:48:38;;;;;;;13.30;2.00;;;9.10;99.90;;;;;;5000807;28;20041;-56
2022/11/23 08:51:05;;;;;;;16.60;4.45;;;9.10;99.90;;;;;;4978958;28;20074;-57
2022/11/23 08:53:32;;;;;;;16.85;2.17;;;9.20;99.90;;;;;;4991269;28;20026;-55
2022/11/23 08:56:06;;;;;;;9.88;1.70;;;9.20;99.90;;;;;;4988647;28;20042;-55
2022/11/23 08:58:32;;;;;;;11.50;2.40;;;9.20;99.90;;;;;;4980808;28;20125;-58
2022/11/23 09:00:57;;;;;;;16.30;2.25;;;9.20;99.90;;;;;;4991300;28;20045;-57
2022/11/23 09:03:23;;;;;;;11.13;2.17;;;9.30;99.90;;;;;;4984288;28;20061;-54
2022/11/23 09:05:50;;;;;;;11.60;1.33;;;9.30;99.90;;;;;;4987180;28;20077;-56
2022/11/23 09:08:16;;;;;;;9.88;2.70;;;9.40;99.90;;;;;;4989009;28;20030;-55
2022/11/23 09:10:42;;;;;;;16.33;2.20;;;9.40;99.90;;;;;;4988209;28;20524;-55
2022/11/23 09:13:08;;;;;;;13.15;1.73;;;9.50;99.90;;;;;;4985315;28;20054;-56
2022/11/23 09:15:33;;;;;;;8.07;1.52;;;9.60;99.90;;;;;;4981352;28;20062;-54
2022/11/23 09:17:59;;;;;;;16.95;2.42;;;9.50;99.90;;;;;;4982692;28;20026;-57
2022/11/23 09:20:25;;;;;;;13.38;2.05;;;9.60;99.90;;;;;;4981993;28;20039;-56
2022/11/23 09:25:26;;;;;;;18.83;2.10;;;9.80;99.90;;;;;;5194593;23;19926;-62
2022/11/23 09:27:58;;;;;;;11.68;1.85;;;9.90;99.90;;;;;;4999732;28;20053;-61
2022/11/23 09:30:27;;;;;;;11.30;2.13;;;9.90;99.90;;;;;;4999801;28;20068;-63
2022/11/23 09:32:55;;;;;;;15.30;2.15;;;10.00;99.90;;;;;;5009740;28;20618;-63
2022/11/23 09:35:21;;;;;;;11.63;1.50;;;10.00;99.90;;;;;;4995381;28;20130;-62
2022/11/23 09:37:47;;;;;;;13.40;1.75;;;10.10;99.90;;;;;;4983242;28;20102;-60
2022/11/23 09:40:16;;;;;;;13.63;1.88;;;10.10;99.90;;;;;;4986498;28;20415;-60
2022/11/23 09:43:16;;;;;;;7.75;1.25;;;10.10;99.90;;;;;;4990921;28;20404;-64
2022/11/23 09:45:54;;;;;;;13.77;1.70;;;10.10;99.90;;;;;;4984553;28;20412;-62
2022/11/23 09:48:32;;;;;;;12.05;1.50;;;9.90;99.90;;;;;;4990827;23;20081;-56
2022/11/23 09:51:16;;;;;;;11.88;2.13;;;9.90;99.90;;;;;;4980802;28;20034;-59
2022/11/23 09:53:49;;;;;;;12.93;1.70;;;10.00;99.90;;;;;;4985969;28;20042;-60
2022/11/23 09:56:29;;;;;;;8.00;1.38;;;10.00;99.90;;;;;;4984746;28;20041;-58
2022/11/23 09:58:58;;;;;;;6.40;1.48;;;10.10;99.90;;;;;;4973982;28;20500;-60
2022/11/23 10:01:26;;;;;;;8.30;1.23;;;10.00;99.90;;;;;;4958706;28;20043;-58
2022/11/23 10:03:53;;;;;;;15.43;1.65;;;10.00;99.90;;;;;;4965455;28;20034;-58
2022/11/23 10:06:20;;;;;;;8.65;1.13;;;10.00;99.90;;;;;;4964246;28;20080;-57
2022/11/23 10:09:14;;;;;;;10.07;1.65;;;10.10;99.90;;;;;;4960351;28;20496;-59
2022/11/23 10:12:15;;;;;;;8.05;1.85;;;10.10;99.90;;;;;;4967559;28;20031;-59
2022/11/23 10:15:09;;;;;;;11.45;2.08;;;10.00;99.90;;;;;;4883375;29;20639;-59
2022/11/23 10:18:01;;;;;;;11.60;1.70;;;10.00;99.90;;;;;;4972136;28;20503;-58
2022/11/23 10:20:50;;;;;;;8.98;2.13;;;10.00;99.90;;;;;;4965539;28;20074;-61
2022/11/23 10:23:40;;;;;;;9.60;2.35;;;10.00;99.90;;;;;;4966995;28;20031;-59
2022/11/23 10:26:12;;;;;;;11.63;1.92;;;10.10;99.90;;;;;;4963838;28;20027;-60
2022/11/23 10:28:38;;;;;;;8.43;1.23;;;10.10;99.90;;;;;;4966784;28;20523;-59
2022/11/23 10:31:16;;;;;;;13.25;1.45;;;10.10;99.90;;;;;;4958604;28;20031;-59
2022/11/23 10:34:00;;;;;;;9.57;1.50;;;10.20;99.90;;;;;;4964181;28;20070;-59
2022/11/23 10:36:25;;;;;;;6.07;1.10;;;10.30;99.90;;;;;;4961740;28;20484;-61
2022/11/23 10:38:58;;;;;;;7.22;1.48;;;10.50;99.90;;;;;;4966402;28;20031;-58
2022/11/23 10:41:24;;;;;;;5.63;1.33;;;10.50;99.90;;;;;;4962558;28;20034;-58
2022/11/23 10:44:13;;;;;;;6.25;1.40;;;10.40;99.90;;;;;;4962318;28;20022;-61
2022/11/23 10:46:40;;;;;;;8.82;1.83;;;10.40;99.90;;;;;;4965557;28;20496;-60
2022/11/23 10:49:21;;;;;;;6.53;1.23;;;10.50;99.90;;;;;;4964242;28;20027;-61
2022/11/23 10:52:04;;;;;;;3.88;1.27;;;10.40;99.90;;;;;;4962493;28;20078;-58
2022/11/23 10:54:31;;;;;;;8.63;1.50;;;10.50;99.90;;;;;;4965258;28;20484;-59
2022/11/23 10:57:01;;;;;;;6.82;1.08;;;10.70;99.90;;;;;;4966964;28;20027;-59
2022/11/23 10:59:28;;;;;;;22.85;2.50;;;10.60;99.90;;;;;;4962267;28;20111;-59
2022/11/23 11:02:17;;;;;;;8.60;1.45;;;10.80;99.90;;;;;;4957835;28;20031;-55
2022/11/23 11:04:43;;;;;;;6.28;1.00;;;10.80;99.90;;;;;;4970411;28;20042;-60
2022/11/23 11:07:18;;;;;;;11.60;1.00;;;10.80;99.90;;;;;;4968290;28;20035;-58
2022/11/23 11:09:56;;;;;;;4.35;1.10;;;10.90;99.90;;;;;;4965461;28;20023;-57
2022/11/23 11:12:22;;;;;;;7.75;0.82;;;11.10;99.90;;;;;;4968542;28;20027;-57
2022/11/23 11:15:01;;;;;;;7.25;1.10;;;11.20;99.90;;;;;;4963886;28;20083;-59
2022/11/23 11:17:30;;;;;;;7.30;1.70;;;11.20;99.90;;;;;;4961763;28;20508;-59
2022/11/23 11:19:56;;;;;;;6.05;1.17;;;11.30;99.90;;;;;;4968282;28;20451;-60
2022/11/23 11:22:35;;;;;;;5.45;1.13;;;11.50;99.90;;;;;;4964466;28;20039;-60
2022/11/23 11:25:03;;;;;;;7.63;0.98;;;11.70;99.90;;;;;;4973478;28;20101;-59
2022/11/23 11:27:31;;;;;;;3.97;0.73;;;11.60;99.90;;;;;;4948144;28;20023;-58
2022/11/23 11:30:20;;;;;;;4.40;0.95;;;11.60;99.90;;;;;;4963781;28;20109;-60
2022/11/23 11:33:17;;;;;;;9.20;1.40;;;11.40;99.90;;;;;;4968246;28;20392;-58
2022/11/23 11:35:47;;;;;;;10.73;1.40;;;11.30;99.90;;;;;;4963829;28;20043;-59
2022/11/23 11:38:23;;;;;;;3.10;1.00;;;11.20;99.90;;;;;;4971690;28;20034;-63
2022/11/23 11:40:51;;;;;;;13.32;1.50;;;11.10;99.90;;;;;;4961164;28;20044;-63
2022/11/23 11:43:19;;;;;;;5.75;1.10;;;11.10;99.90;;;;;;4965000;28;20035;-63
2022/11/23 11:45:47;;;;;;;9.73;2.22;;;11.10;99.90;;;;;;4961942;28;20086;-62
2022/11/23 11:48:38;;;;;;;7.10;1.27;;;11.00;99.90;;;;;;4970986;28;20101;-62
2022/11/23 11:51:10;;;;;;;5.75;1.50;;;11.10;99.90;;;;;;4961492;28;20065;-63
2022/11/23 11:53:56;;;;;;;13.68;1.77;;;11.10;99.90;;;;;;4966923;28;20050;-60
2022/11/23 11:56:44;;;;;;;9.73;1.40;;;11.10;99.90;;;;;;4959934;28;20295;-63
2022/11/23 11:59:13;;;;;;;9.15;2.03;;;11.10;99.90;;;;;;4968954;28;20130;-61
2022/11/23 12:01:47;;;;;;;4.55;1.10;;;11.20;99.90;;;;;;4962222;28;20039;-61
2022/11/23 12:04:16;;;;;;;;;;;11.20;99.90;;;;;;4964385;28;20764;-62
2022/11/23 12:07:12;;;;;;;10.73;1.13;;;11.10;99.90;;;;;;4950013;28;20071;-62
2022/11/23 12:09:43;;;;;;;7.32;1.25;;;11.00;99.90;;;;;;4917910;28;20093;-62
2022/11/23 12:12:15;;;;;;;4.57;1.20;;;11.00;99.90;;;;;;4961842;28;20035;-61
2022/11/23 12:14:42;;;;;;;7.38;1.00;;;11.20;99.90;;;;;;4965956;28;20027;-61
2022/11/23 12:17:28;;;;;;;6.88;1.23;;;11.40;99.90;;;;;;4962688;28;20034;-62
2022/11/23 12:20:10;;;;;;;3.22;1.05;;;11.60;99.90;;;;;;4963712;28;20569;-61
2022/11/23 12:22:58;;;;;;;5.65;1.02;;;11.60;99.90;;;;;;4967548;28;20023;-61
2022/11/23 12:25:32;;;;;;;6.88;1.20;;;11.60;99.90;;;;;;4963942;28;20268;-61
2022/11/23 12:28:35;;;;;;;7.23;1.00;;;11.70;99.90;;;;;;4967607;28;20566;-60
2022/11/23 12:31:28;;;;;;;4.57;1.25;;;11.70;99.90;;;;;;4960361;28;20065;-62
2022/11/23 12:33:56;;;;;;;4.78;1.10;;;11.50;99.90;;;;;;4957418;28;20090;-61
2022/11/23 12:37:01;;;;;;;3.15;0.82;;;11.30;99.90;;;;;;4964670;28;20476;-60
2022/11/23 12:40:06;;;;;;;4.13;1.02;;;11.30;99.90;;;;;;4959202;28;20031;-61
2022/11/23 12:42:39;;;;;;;2.88;1.25;;;11.40;99.90;;;;;;4904281;29;20095;-61
2022/11/23 12:45:41;;;;;;;4.90;1.17;;;11.30;99.90;;;;;;4904487;29;20036;-61
2022/11/23 12:48:36;;;;;;;6.13;0.98;;;11.30;99.90;;;;;;4948415;28;20068;-62
2022/11/23 12:51:01;;;;;;;6.25;1.13;;;11.20;99.90;;;;;;4967249;28;20029;-62
2022/11/23 12:53:50;;;;;;;7.53;1.10;;;11.20;99.90;;;;;;4958753;28;20030;-62
2022/11/23 12:56:18;;;;;;;9.25;1.48;;;11.20;99.90;;;;;;4961773;28;20031;-59
2022/11/23 12:58:48;;;;;;;8.23;1.45;;;11.40;99.90;;;;;;4962583;28;20480;-62
2022/11/23 13:01:18;;;;;;;6.78;1.40;;;11.50;99.90;;;;;;4963935;28;20039;-61
2022/11/23 13:04:08;;;;;;;8.57;1.35;;;11.60;99.90;;;;;;4963236;28;20054;-62
2022/11/23 13:07:11;;;;;;;5.78;1.15;;;11.60;99.90;;;;;;4963749;28;20061;-61